Time;durP1;ratioP1;P1;durP2;ratioP2;P2;SDS_P1;SDS_P2;PMS_P1;PMS_P2;Temp;Humidity;BMP_temperature;BMP_pressure;BME280_temperature;BME280_humidity;BME280_pressure;Samples;Min_cycle;Max_cycle;Signal;HPM_P1;HPM_P2
2022/12/24 00:02:29;;;;;;;38.83;18.27;;;;;;;;;;10505655;28;20121;-73
2022/12/24 00:07:30;;;;;;;40.83;17.45;;;;;;;;;;10508447;28;20415;-77
2022/12/24 00:12:30;;;;;;;41.28;18.42;;;;;;;;;;10513471;28;20066;-81
2022/12/24 00:17:31;;;;;;;32.88;16.15;;;;;;;;;;10532367;28;20103;-78
2022/12/24 00:22:31;;;;;;;33.47;17.42;;;;;;;;;;10514136;28;20016;-79
2022/12/24 00:27:31;;;;;;;43.47;16.75;;;;;;;;;;10513192;28;20489;-76
2022/12/24 00:32:32;;;;;;;38.70;19.27;;;;;;;;;;10513489;28;20071;-74
2022/12/24 00:37:32;;;;;;;33.75;17.42;;;;;;;;;;10514111;28;20027;-74
2022/12/24 00:42:32;;;;;;;23.13;11.52;;;;;;;;;;10513064;28;20020;-76
2022/12/24 00:47:33;;;;;;;44.00;17.13;;;;;;;;;;10513169;28;20020;-73
2022/12/24 00:52:34;;;;;;;30.48;16.17;;;;;;;;;;10531235;28;20055;-75
2022/12/24 00:57:34;;;;;;;31.92;14.38;;;;;;;;;;10531056;28;20111;-73
2022/12/24 01:02:34;;;;;;;23.40;11.90;;;;;;;;;;10511668;28;20489;-72
2022/12/24 01:07:35;;;;;;;22.05;10.68;;;;;;;;;;10512841;28;20032;-76
2022/12/24 01:12:36;;;;;;;26.27;10.00;;;;;;;;;;10512180;28;20028;-74
2022/12/24 01:17:37;;;;;;;25.05;10.85;;;;;;;;;;10519212;28;20387;-73
2022/12/24 01:22:37;;;;;;;25.63;10.98;;;;;;;;;;10518453;28;20085;-77
2022/12/24 01:27:37;;;;;;;24.40;10.30;;;;;;;;;;10521712;28;20465;-74
2022/12/24 01:32:37;;;;;;;29.20;12.68;;;;;;;;;;10511966;28;20564;-73
2022/12/24 01:37:38;;;;;;;30.95;13.07;;;;;;;;;;10510868;28;20498;-74
2022/12/24 01:48:00;;;;;;;25.45;12.90;;;;;;;;;;10528100;28;20028;-75
2022/12/24 01:53:01;;;;;;;27.20;11.80;;;;;;;;;;10528492;28;20016;-74
2022/12/24 01:58:03;;;;;;;27.85;13.77;;;;;;;;;;10508800;28;20016;-73
2022/12/24 02:03:04;;;;;;;24.00;12.95;;;;;;;;;;10527411;28;20055;-78
2022/12/24 02:08:04;;;;;;;21.48;11.30;;;;;;;;;;10510159;28;20581;-75
2022/12/24 02:13:06;;;;;;;29.33;15.35;;;;;;;;;;10527982;28;20524;-77
2022/12/24 02:18:15;;;;;;;47.15;16.67;;;;;;;;;;10509550;28;20166;-76
2022/12/24 02:23:34;;;;;;;34.75;14.90;;;;;;;;;;10527850;28;20030;-73
2022/12/24 02:28:35;;;;;;;23.30;12.30;;;;;;;;;;10527346;28;20026;-80
2022/12/24 02:33:50;;;;;;;31.17;15.23;;;;;;;;;;10507594;28;20032;-76
2022/12/24 02:39:09;;;;;;;31.90;15.85;;;;;;;;;;10470946;28;20038;-72
2022/12/24 02:44:09;;;;;;;27.55;15.32;;;;;;;;;;10508731;28;20028;-76
2022/12/24 02:49:10;;;;;;;30.30;15.73;;;;;;;;;;10526852;28;20399;-72
2022/12/24 02:54:10;;;;;;;31.95;14.43;;;;;;;;;;10507918;28;20406;-73
2022/12/24 02:59:13;;;;;;;36.95;18.40;;;;;;;;;;10507610;28;20016;-79
2022/12/24 03:04:17;;;;;;;33.50;17.98;;;;;;;;;;10483348;28;20418;-78
2022/12/24 03:09:23;;;;;;;37.60;16.77;;;;;;;;;;10482388;28;20377;-75
2022/12/24 03:14:24;;;;;;;38.20;17.38;;;;;;;;;;10481992;28;20493;-75
2022/12/24 03:19:26;;;;;;;43.58;18.02;;;;;;;;;;10502802;28;20108;-75
2022/12/24 03:24:26;;;;;;;40.55;19.50;;;;;;;;;;10506093;28;20030;-75
2022/12/24 03:29:27;;;;;;;41.33;17.08;;;;;;;;;;10487470;28;20025;-73
2022/12/24 03:34:27;;;;;;;40.27;17.50;;;;;;;;;;10482402;28;20036;-78
2022/12/24 03:39:27;;;;;;;42.50;19.45;;;;;;;;;;10482197;28;20269;-72
2022/12/24 03:44:27;;;;;;;33.20;17.10;;;;;;;;;;10481407;28;20025;-77
2022/12/24 03:49:28;;;;;;;39.83;18.08;;;;;;;;;;10482567;28;20552;-74
2022/12/24 03:54:28;;;;;;;40.03;17.75;;;;;;;;;;10481657;28;20032;-80
2022/12/24 03:59:28;;;;;;;21.15;8.70;;;;;;;;;;10499074;28;20013;-77
2022/12/24 04:04:29;;;;;;;16.83;9.82;;;;;;;;;;10505244;28;20553;-73
2022/12/24 04:09:29;;;;;;;22.17;11.27;;;;;;;;;;10493654;28;20025;-72
2022/12/24 04:14:30;;;;;;;32.42;15.13;;;;;;;;;;10465486;28;20052;-75
2022/12/24 04:19:30;;;;;;;31.58;16.42;;;;;;;;;;10473556;28;20710;-72
2022/12/24 04:24:30;;;;;;;26.73;14.40;;;;;;;;;;10524306;28;20111;-76
2022/12/24 04:29:30;;;;;;;28.95;14.07;;;;;;;;;;10506071;28;20023;-76
2022/12/24 04:34:31;;;;;;;29.20;14.45;;;;;;;;;;10505923;28;20024;-73
2022/12/24 04:39:31;;;;;;;28.15;14.55;;;;;;;;;;10473339;28;20115;-75
2022/12/24 04:44:31;;;;;;;26.55;13.30;;;;;;;;;;10505490;28;20020;-72
2022/12/24 04:49:31;;;;;;;31.17;15.02;;;;;;;;;;10505130;28;20027;-76
2022/12/24 04:54:32;;;;;;;36.42;14.65;;;;;;;;;;10497139;28;20020;-74
2022/12/24 04:59:32;;;;;;;30.10;14.07;;;;;;;;;;10513315;28;20418;-80
2022/12/24 05:04:32;;;;;;;32.92;16.48;;;;;;;;;;10502890;28;20135;-75
2022/12/24 05:09:35;;;;;;;47.70;16.17;;;;;;;;;;10483069;28;20023;-79
2022/12/24 05:14:35;;;;;;;28.73;13.63;;;;;;;;;;10510771;28;20133;-74
2022/12/24 05:19:36;;;;;;;29.63;16.80;;;;;;;;;;10546010;28;20020;-76
2022/12/24 05:29:55;;;;;;;30.73;12.60;;;;;;;;;;10538613;28;20486;-72
2022/12/24 05:34:55;;;;;;;26.08;12.55;;;;;;;;;;10509541;28;20024;-72
2022/12/24 05:39:55;;;;;;;21.67;11.30;;;;;;;;;;10510501;28;20490;-77
2022/12/24 05:44:56;;;;;;;31.33;11.80;;;;;;;;;;10509819;28;20157;-73
2022/12/24 05:49:56;;;;;;;23.98;14.05;;;;;;;;;;10510078;28;20058;-77
2022/12/24 05:54:56;;;;;;;28.20;14.73;;;;;;;;;;10509287;28;20027;-78
2022/12/24 05:59:56;;;;;;;28.98;12.05;;;;;;;;;;10510618;28;20545;-73
2022/12/24 06:04:57;;;;;;;14.27;7.15;;;;;;;;;;10510228;28;20402;-74
2022/12/24 06:09:57;;;;;;;18.52;10.27;;;;;;;;;;10509477;28;20115;-75
2022/12/24 06:14:57;;;;;;;10.40;6.10;;;;;;;;;;10510111;28;20024;-80
2022/12/24 06:19:57;;;;;;;10.75;5.85;;;;;;;;;;10507998;28;20126;-73
2022/12/24 06:24:58;;;;;;;18.10;6.70;;;;;;;;;;10508259;28;20027;-74
2022/12/24 06:29:58;;;;;;;14.27;7.22;;;;;;;;;;10507854;28;20476;-77
2022/12/24 06:34:58;;;;;;;13.68;7.50;;;;;;;;;;10524491;28;20466;-74
2022/12/24 06:40:00;;;;;;;13.93;7.55;;;;;;;;;;10507577;28;20477;-79
2022/12/24 06:45:00;;;;;;;14.50;7.72;;;;;;;;;;10518501;28;20077;-77
2022/12/24 06:50:00;;;;;;;16.10;7.93;;;;;;;;;;10518335;28;20023;-79
2022/12/24 06:55:02;;;;;;;16.75;7.65;;;;;;;;;;10522749;28;20028;-76
2022/12/24 07:00:02;;;;;;;17.77;8.50;;;;;;;;;;10523470;28;20508;-78
2022/12/24 07:05:03;;;;;;;18.30;9.75;;;;;;;;;;10524284;28;20358;-71
2022/12/24 07:10:03;;;;;;;22.93;11.13;;;;;;;;;;10503314;28;20027;-74
2022/12/24 07:15:04;;;;;;;24.60;12.63;;;;;;;;;;10505942;28;20274;-77
2022/12/24 07:20:13;;;;;;;24.52;12.25;;;;;;;;;;10518416;28;20078;-72
2022/12/24 07:25:14;;;;;;;26.77;12.18;;;;;;;;;;10518102;28;21890;-74
2022/12/24 07:30:15;;;;;;;23.48;12.90;;;;;;;;;;10533489;28;20027;-75
2022/12/24 07:35:15;;;;;;;33.40;14.15;;;;;;;;;;10518057;28;20051;-74
2022/12/24 07:40:15;;;;;;;23.77;13.15;;;;;;;;;;10504471;28;20036;-81
2022/12/24 07:45:16;;;;;;;27.97;14.60;;;;;;;;;;10512422;28;20527;-75
2022/12/24 07:50:16;;;;;;;24.37;13.17;;;;;;;;;;10500241;28;20020;-72
2022/12/24 07:55:16;;;;;;;23.77;11.63;;;;;;;;;;10503807;28;20721;-74
2022/12/24 08:00:17;;;;;;;21.97;11.67;;;;;;;;;;10520821;28;20176;-78
2022/12/24 08:05:17;;;;;;;25.08;12.02;;;;;;;;;;10498293;28;20281;-73
2022/12/24 08:10:17;;;;;;;29.47;12.83;;;;;;;;;;10481894;28;20047;-80
2022/12/24 08:15:18;;;;;;;21.77;12.13;;;;;;;;;;10494556;28;20032;-78
2022/12/24 08:20:18;;;;;;;22.70;12.77;;;;;;;;;;10504738;28;20020;-79
2022/12/24 08:25:19;;;;;;;25.23;14.33;;;;;;;;;;10482307;28;20415;-75
2022/12/24 08:30:20;;;;;;;32.03;14.57;;;;;;;;;;10525295;28;20020;-75
2022/12/24 08:35:20;;;;;;;31.10;13.00;;;;;;;;;;10512409;28;20648;-74
2022/12/24 08:40:20;;;;;;;29.42;15.27;;;;;;;;;;10528426;28;20478;-75
2022/12/24 08:45:21;;;;;;;20.90;12.27;;;;;;;;;;10510178;28;20012;-75
2022/12/24 08:50:21;;;;;;;34.93;17.03;;;;;;;;;;10528236;28;20258;-80
2022/12/24 08:55:21;;;;;;;33.72;18.20;;;;;;;;;;10512589;28;20107;-79
2022/12/24 09:00:22;;;;;;;37.85;20.02;;;;;;;;;;10531454;28;20032;-73
2022/12/24 09:05:22;;;;;;;43.73;21.73;;;;;;;;;;10530133;28;20456;-75
2022/12/24 09:10:23;;;;;;;41.42;20.30;;;;;;;;;;10511747;28;20065;-76
2022/12/24 09:15:23;;;;;;;51.88;21.50;;;;;;;;;;10530889;28;20023;-80
2022/12/24 09:20:24;;;;;;;55.72;22.13;;;;;;;;;;10530697;28;20447;-77
2022/12/24 09:25:25;;;;;;;53.17;26.25;;;;;;;;;;10530619;28;20020;-78
2022/12/24 09:30:27;;;;;;;44.35;23.15;;;;;;;;;;10533694;28;20487;-76
2022/12/24 09:35:29;;;;;;;43.95;22.20;;;;;;;;;;10528014;28;20016;-75
2022/12/24 09:40:36;;;;;;;47.67;22.25;;;;;;;;;;10552478;27;20016;-76
2022/12/24 09:45:39;;;;;;;56.50;26.48;;;;;;;;;;10537976;28;20016;-77
2022/12/24 09:50:58;;;;;;;62.67;26.98;;;;;;;;;;10509880;28;20023;-77
2022/12/24 09:56:01;;;;;;;58.78;27.83;;;;;;;;;;10528832;28;20012;-78
2022/12/24 10:01:02;;;;;;;58.40;28.38;;;;;;;;;;10510027;28;20070;-78
2022/12/24 10:06:02;;;;;;;63.93;27.77;;;;;;;;;;10485378;28;20062;-77
2022/12/24 10:11:09;;;;;;;65.07;29.83;;;;;;;;;;10490687;28;20150;-77
2022/12/24 10:16:18;;;;;;;71.13;33.08;;;;;;;;;;10526476;28;20066;-79
2022/12/24 10:21:21;;;;;;;65.72;30.38;;;;;;;;;;10527665;28;20032;-79
2022/12/24 10:26:23;;;;;;;77.45;31.77;;;;;;;;;;10509111;28;20020;-74
2022/12/24 10:31:34;;;;;;;58.92;29.77;;;;;;;;;;10508350;28;20455;-74
2022/12/24 10:36:34;;;;;;;72.20;32.03;;;;;;;;;;10507997;28;20024;-74
2022/12/24 10:41:35;;;;;;;57.88;28.00;;;;;;;;;;10525381;28;20482;-77
2022/12/24 10:46:36;;;;;;;66.47;29.40;;;;;;;;;;10492793;28;20044;-80
2022/12/24 10:51:46;;;;;;;62.70;29.27;;;;;;;;;;10535456;28;20070;-78
2022/12/24 10:56:49;;;;;;;60.88;29.30;;;;;;;;;;10526171;28;20063;-77
2022/12/24 11:01:49;;;;;;;67.45;30.52;;;;;;;;;;10507655;28;20055;-80
2022/12/24 11:06:54;;;;;;;67.50;32.07;;;;;;;;;;10507628;28;20035;-78
2022/12/24 11:11:56;;;;;;;75.40;33.90;;;;;;;;;;10491058;28;20042;-78
2022/12/24 11:16:57;;;;;;;73.32;34.83;;;;;;;;;;10506548;28;20024;-79
2022/12/24 11:21:58;;;;;;;64.25;33.65;;;;;;;;;;10506791;28;20310;-78
2022/12/24 11:27:18;;;;;;;69.57;32.95;;;;;;;;;;10507342;28;20067;-79
2022/12/24 11:32:20;;;;;;;71.90;34.55;;;;;;;;;;10505920;28;20020;-81
2022/12/24 11:37:22;;;;;;;76.38;34.38;;;;;;;;;;10512384;28;20583;-79
2022/12/24 11:42:28;;;;;;;88.63;38.22;;;;;;;;;;10523288;28;20031;-73
2022/12/24 11:47:36;;;;;;;73.20;32.65;;;;;;;;;;10524720;28;20504;-75
2022/12/24 11:52:36;;;;;;;72.50;29.13;;;;;;;;;;10506481;28;20032;-76
2022/12/24 11:57:46;;;;;;;57.70;27.47;;;;;;;;;;10506067;28;20024;-80
2022/12/24 12:02:48;;;;;;;56.55;27.25;;;;;;;;;;10503682;28;20059;-72
2022/12/24 12:08:00;;;;;;;57.08;27.55;;;;;;;;;;10523617;28;20020;-77
2022/12/24 12:13:21;;;;;;;54.42;25.25;;;;;;;;;;10541653;28;20028;-77
2022/12/24 12:18:24;;;;;;;56.40;26.42;;;;;;;;;;10548812;28;20016;-75
2022/12/24 12:23:24;;;;;;;55.33;25.83;;;;;;;;;;10511807;28;20092;-79
2022/12/24 12:28:31;;;;;;;61.97;26.08;;;;;;;;;;10502853;28;20028;-78
2022/12/24 12:33:40;;;;;;;68.95;25.92;;;;;;;;;;10527390;28;20054;-77
2022/12/24 12:38:40;;;;;;;60.67;27.42;;;;;;;;;;10513653;28;20085;-75
2022/12/24 12:43:43;;;;;;;56.77;27.47;;;;;;;;;;10491599;28;20415;-73
2022/12/24 12:49:03;;;;;;;54.58;29.08;;;;;;;;;;10518099;28;20270;-77
2022/12/24 12:54:07;;;;;;;60.13;25.02;;;;;;;;;;10518823;28;20060;-76
2022/12/24 12:59:11;;;;;;;57.95;24.50;;;;;;;;;;10506508;28;20615;-72
2022/12/24 13:04:24;;;;;;;63.80;31.15;;;;;;;;;;10506405;28;20056;-72
2022/12/24 13:09:27;;;;;;;60.42;26.55;;;;;;;;;;10509109;28;20055;-77
2022/12/24 13:14:27;;;;;;;52.63;27.48;;;;;;;;;;10507895;28;20556;-78
2022/12/24 13:19:46;;;;;;;58.05;25.55;;;;;;;;;;10498134;28;20020;-78
2022/12/24 13:24:49;;;;;;;60.67;28.33;;;;;;;;;;10509987;28;20021;-76
2022/12/24 13:30:00;;;;;;;67.35;30.10;;;;;;;;;;10490611;28;20040;-74
2022/12/24 13:35:02;;;;;;;60.08;28.48;;;;;;;;;;10499436;28;20080;-78
2022/12/24 13:40:08;;;;;;;63.85;33.00;;;;;;;;;;10510543;28;20013;-73
2022/12/24 13:45:27;;;;;;;73.32;31.83;;;;;;;;;;10527462;28;20036;-79
2022/12/24 13:50:27;;;;;;;;;;;;;;;;;;10508502;28;20055;-76
2022/12/24 13:55:28;;;;;;;66.55;30.60;;;;;;;;;;10507965;28;20006;-76
2022/12/24 14:00:28;;;;;;;72.32;33.85;;;;;;;;;;10507897;28;20028;-79
2022/12/24 14:05:31;;;;;;;75.78;36.42;;;;;;;;;;10498754;28;20025;-78
2022/12/24 14:10:37;;;;;;;83.22;39.50;;;;;;;;;;10482864;28;20036;-79
2022/12/24 14:15:47;;;;;;;83.45;38.97;;;;;;;;;;10488042;28;20058;-73
2022/12/24 14:20:49;;;;;;;83.50;40.47;;;;;;;;;;10523863;28;20020;-79
2022/12/24 14:25:49;;;;;;;77.20;34.35;;;;;;;;;;10522874;28;20372;-74
2022/12/24 14:31:00;;;;;;;76.53;37.22;;;;;;;;;;10493254;28;20038;-79
2022/12/24 14:36:01;;;;;;;86.00;38.50;;;;;;;;;;10510441;28;20020;-74
2022/12/24 14:41:04;;;;;;;82.05;38.45;;;;;;;;;;10531419;28;20067;-71
2022/12/24 14:46:07;;;;;;;93.78;41.00;;;;;;;;;;10537116;28;20545;-73
2022/12/24 14:51:08;;;;;;;89.55;41.72;;;;;;;;;;10505469;28;20024;-74
2022/12/24 14:56:12;;;;;;;89.57;41.63;;;;;;;;;;10508590;28;20028;-78
2022/12/24 15:01:23;;;;;;;95.05;42.60;;;;;;;;;;10505540;28;20075;-76
2022/12/24 15:06:25;;;;;;;93.78;40.17;;;;;;;;;;10495319;28;20043;-73
2022/12/24 15:11:25;;;;;;;89.80;39.83;;;;;;;;;;10487051;28;20024;-77
2022/12/24 15:16:28;;;;;;;76.47;35.40;;;;;;;;;;10489615;28;20024;-77
2022/12/24 15:21:30;;;;;;;64.00;30.60;;;;;;;;;;10500906;28;20281;-77
2022/12/24 15:26:33;;;;;;;54.58;26.13;;;;;;;;;;10503821;28;20519;-79
2022/12/24 15:31:34;;;;;;;46.95;22.27;;;;;;;;;;10520069;28;20472;-74
2022/12/24 15:36:35;;;;;;;43.33;19.60;;;;;;;;;;10518461;28;20028;-72
2022/12/24 15:42:12;;;;;;;34.22;16.98;;;;;;;;;;10522447;28;20024;-77
2022/12/24 15:47:00;;;;;;;32.92;14.35;;;;;;;;;;10520161;28;20024;-73
2022/12/24 15:52:12;;;;;;;31.30;14.18;;;;;;;;;;10518490;28;20035;-74
2022/12/24 15:57:13;;;;;;;31.15;14.07;;;;;;;;;;10500845;28;20035;-74
2022/12/24 16:02:30;;;;;;;31.85;14.90;;;;;;;;;;10499604;28;20059;-78
2022/12/24 16:08:05;;;;;;;30.60;13.38;;;;;;;;;;10500428;28;20031;-78
2022/12/24 16:12:51;;;;;;;29.40;14.52;;;;;;;;;;10512672;28;20024;-78
2022/12/24 16:17:52;;;;;;;22.63;13.00;;;;;;;;;;10498441;28;20036;-72
2022/12/24 16:22:52;;;;;;;28.75;13.57;;;;;;;;;;10481478;28;20488;-77
2022/12/24 16:27:52;;;;;;;30.80;15.23;;;;;;;;;;10497980;28;20028;-79
2022/12/24 16:32:53;;;;;;;46.33;17.83;;;;;;;;;;10496981;28;20020;-77
2022/12/24 16:37:54;;;;;;;48.43;22.23;;;;;;;;;;10494972;28;20016;-78
2022/12/24 16:48:24;;;;;;;59.00;26.70;;;;;;;;;;10517324;28;20417;-70
2022/12/24 16:53:24;;;;;;;63.88;29.83;;;;;;;;;;10535390;28;20031;-75
2022/12/24 16:58:25;;;;;;;61.73;30.77;;;;;;;;;;10522643;28;20030;-71
2022/12/24 17:03:27;;;;;;;81.78;36.35;;;;;;;;;;10518994;28;20048;-74
2022/12/24 17:08:27;;;;;;;72.68;36.67;;;;;;;;;;10518196;28;20077;-77
2022/12/24 17:13:27;;;;;;;83.88;38.22;;;;;;;;;;10525331;28;20505;-77
2022/12/24 17:18:27;;;;;;;75.28;38.20;;;;;;;;;;10509782;28;20503;-79
2022/12/24 17:23:28;;;;;;;76.75;38.05;;;;;;;;;;10503442;28;20347;-75
2022/12/24 17:28:28;;;;;;;82.10;41.78;;;;;;;;;;10498338;28;20024;-79
2022/12/24 17:33:30;;;;;;;71.73;35.57;;;;;;;;;;10490857;28;20574;-76
2022/12/24 17:38:30;;;;;;;65.63;32.15;;;;;;;;;;10501565;28;20591;-74
2022/12/24 17:43:31;;;;;;;60.72;28.88;;;;;;;;;;10505993;28;20034;-78
2022/12/24 17:48:33;;;;;;;51.47;27.45;;;;;;;;;;10503764;28;20020;-78
2022/12/24 17:53:34;;;;;;;46.45;25.33;;;;;;;;;;10509205;28;20086;-77
2022/12/24 17:58:34;;;;;;;47.30;21.65;;;;;;;;;;10512609;28;20024;-77
2022/12/24 18:03:35;;;;;;;33.87;19.30;;;;;;;;;;10507781;28;20040;-77
2022/12/24 18:08:36;;;;;;;29.73;15.10;;;;;;;;;;10521251;28;20466;-77
2022/12/24 18:13:36;;;;;;;24.35;12.40;;;;;;;;;;10475778;28;20027;-75
2022/12/24 18:18:36;;;;;;;20.50;10.55;;;;;;;;;;10492119;28;20075;-77
2022/12/24 18:23:41;;;;;;;24.17;10.90;;;;;;;;;;10473646;28;20486;-79
2022/12/24 18:28:43;;;;;;;26.40;11.18;;;;;;;;;;10519086;28;20454;-79
2022/12/24 18:33:45;;;;;;;21.83;11.70;;;;;;;;;;10503876;28;20020;-78
2022/12/24 18:38:46;;;;;;;16.80;10.30;;;;;;;;;;10498420;28;20028;-78
2022/12/24 18:43:47;;;;;;;19.15;9.88;;;;;;;;;;10495243;28;20032;-75
2022/12/24 18:48:48;;;;;;;22.58;8.52;;;;;;;;;;10517799;28;20169;-78
2022/12/24 18:53:48;;;;;;;14.52;6.85;;;;;;;;;;10496996;28;20069;-79
2022/12/24 18:58:51;;;;;;;11.70;7.18;;;;;;;;;;10470187;28;20324;-77
2022/12/24 19:03:52;;;;;;;12.82;6.18;;;;;;;;;;10519047;28;20055;-73
2022/12/24 19:08:52;;;;;;;13.43;5.37;;;;;;;;;;10518603;28;20504;-74
2022/12/24 19:13:53;;;;;;;9.80;6.00;;;;;;;;;;10511092;28;20496;-78
2022/12/24 19:18:53;;;;;;;10.60;6.87;;;;;;;;;;10519017;28;20024;-76
2022/12/24 19:23:53;;;;;;;11.73;6.70;;;;;;;;;;10519359;28;20016;-77
2022/12/24 19:28:54;;;;;;;11.97;6.43;;;;;;;;;;10491698;28;20813;-78
2022/12/24 19:33:55;;;;;;;9.88;6.20;;;;;;;;;;10498483;28;20107;-78
2022/12/24 19:38:57;;;;;;;13.25;7.07;;;;;;;;;;10488895;28;20216;-80
2022/12/24 19:43:59;;;;;;;9.95;5.35;;;;;;;;;;10518531;28;20655;-77
2022/12/24 19:49:01;;;;;;;11.73;5.90;;;;;;;;;;10514844;28;20109;-77
2022/12/24 19:54:03;;;;;;;8.68;5.53;;;;;;;;;;10514245;28;20028;-77
2022/12/24 19:59:04;;;;;;;10.05;6.07;;;;;;;;;;10491933;28;20028;-76
2022/12/24 20:04:05;;;;;;;8.73;5.18;;;;;;;;;;10499645;28;20529;-75
2022/12/24 20:09:07;;;;;;;11.48;5.95;;;;;;;;;;10513636;28;20108;-76
2022/12/24 20:14:10;;;;;;;10.07;5.93;;;;;;;;;;10513398;28;20031;-77
2022/12/24 20:19:12;;;;;;;10.13;5.43;;;;;;;;;;10502816;28;20051;-79
2022/12/24 20:24:12;;;;;;;12.45;6.13;;;;;;;;;;10510842;28;20627;-79
2022/12/24 20:29:15;;;;;;;10.73;5.88;;;;;;;;;;10510498;28;20035;-79
2022/12/24 20:34:16;;;;;;;12.05;5.15;;;;;;;;;;10505820;28;20024;-77
2022/12/24 20:39:16;;;;;;;7.32;4.53;;;;;;;;;;10506082;28;20027;-78
2022/12/24 20:44:17;;;;;;;7.05;4.75;;;;;;;;;;10527835;28;20027;-79
2022/12/24 20:49:17;;;;;;;8.80;4.25;;;;;;;;;;10508323;28;20116;-79
2022/12/24 20:54:19;;;;;;;11.82;4.68;;;;;;;;;;10505293;28;20032;-76
2022/12/24 20:59:20;;;;;;;8.13;4.60;;;;;;;;;;10528677;28;20035;-78
2022/12/24 21:04:20;;;;;;;9.10;4.80;;;;;;;;;;10519743;28;20051;-75
2022/12/24 21:09:20;;;;;;;7.18;4.25;;;;;;;;;;10526253;28;20523;-78
2022/12/24 21:14:23;;;;;;;8.40;4.80;;;;;;;;;;10545829;28;20051;-77
2022/12/24 21:19:24;;;;;;;5.88;3.60;;;;;;;;;;10537219;28;20035;-79
2022/12/24 21:24:24;;;;;;;6.55;4.75;;;;;;;;;;10513894;22;20435;-78
2022/12/24 21:29:26;;;;;;;9.45;5.95;;;;;;;;;;10496310;28;20024;-76
2022/12/24 21:34:26;;;;;;;10.10;4.28;;;;;;;;;;10458785;28;20097;-78
2022/12/24 21:39:26;;;;;;;10.00;4.95;;;;;;;;;;10453294;28;20012;-79
2022/12/24 21:44:27;;;;;;;9.55;5.55;;;;;;;;;;10485485;28;20024;-79
2022/12/24 21:54:46;;;;;;;9.20;4.20;;;;;;;;;;10454596;28;20541;-80
2022/12/24 21:59:51;;;;;;;7.78;4.55;;;;;;;;;;10440224;28;20020;-79
2022/12/24 22:04:52;;;;;;;8.13;4.55;;;;;;;;;;10444957;28;20032;-76
2022/12/24 22:15:12;;;;;;;8.23;3.97;;;;;;;;;;10473501;28;20047;-74
2022/12/24 22:20:12;;;;;;;5.43;3.42;;;;;;;;;;10484388;28;20426;-75
2022/12/24 22:25:12;;;;;;;4.77;3.10;;;;;;;;;;10484777;28;20230;-77
2022/12/24 22:30:14;;;;;;;8.63;3.37;;;;;;;;;;10457974;28;20052;-76
2022/12/24 22:35:14;;;;;;;6.63;3.35;;;;;;;;;;10457094;28;20021;-74
2022/12/24 22:40:14;;;;;;;7.00;3.50;;;;;;;;;;10461030;28;20020;-76
2022/12/24 22:45:15;;;;;;;7.27;3.20;;;;;;;;;;10453288;28;20528;-78
2022/12/24 22:50:15;;;;;;;5.50;3.20;;;;;;;;;;10483717;28;20032;-72
2022/12/24 22:55:16;;;;;;;8.57;4.20;;;;;;;;;;10483829;28;20107;-79
2022/12/24 23:00:35;;;;;;;8.98;3.95;;;;;;;;;;10482886;28;20017;-74
2022/12/24 23:05:36;;;;;;;5.65;3.50;;;;;;;;;;10502643;28;20422;-78
2022/12/24 23:10:37;;;;;;;7.72;4.00;;;;;;;;;;10501910;28;20028;-76
2022/12/24 23:15:37;;;;;;;6.97;3.95;;;;;;;;;;10472048;28;20028;-77
2022/12/24 23:20:45;;;;;;;6.60;4.13;;;;;;;;;;10484875;28;20559;-78
2022/12/24 23:25:45;;;;;;;7.63;4.13;;;;;;;;;;10481910;28;20027;-79
2022/12/24 23:30:55;;;;;;;6.82;3.97;;;;;;;;;;10481033;28;20035;-75
2022/12/24 23:35:55;;;;;;;8.07;4.13;;;;;;;;;;10463042;28;20021;-74
2022/12/24 23:41:00;;;;;;;6.47;3.67;;;;;;;;;;10403127;28;20025;-75
2022/12/24 23:46:01;;;;;;;10.15;4.53;;;;;;;;;;10465572;28;20418;-74
2022/12/24 23:51:02;;;;;;;9.95;5.05;;;;;;;;;;10481478;28;20020;-74
2022/12/24 23:56:03;;;;;;;7.70;4.55;;;;;;;;;;10482143;28;20111;-74
